createdAt,value
2018-02-27T00:01:10.879Z,8.85
2018-02-27T00:03:38.311Z,7.53
2018-02-27T00:06:06.852Z,7.80
2018-02-27T00:08:34.332Z,7.25
2018-02-27T00:11:01.782Z,8.55
2018-02-27T00:13:29.220Z,8.88
2018-02-27T00:15:56.796Z,6.70
2018-02-27T00:18:24.234Z,8.68
2018-02-27T00:20:54.693Z,7.12
2018-02-27T00:23:22.440Z,9.15
2018-02-27T00:25:49.876Z,6.90
2018-02-27T00:28:17.405Z,14.10
2018-02-27T00:30:45.628Z,4.97
2018-02-27T00:33:13.064Z,5.47
2018-02-27T00:35:40.528Z,5.82
2018-02-27T00:38:07.981Z,4.80
2018-02-27T00:40:35.412Z,6.12
2018-02-27T00:43:03.709Z,5.37
2018-02-27T00:45:31.132Z,5.30
2018-02-27T00:47:59.395Z,4.90
2018-02-27T00:50:26.880Z,5.35
2018-02-27T00:52:55.097Z,5.82
2018-02-27T00:55:22.661Z,5.80
2018-02-27T00:57:50.104Z,5.70
2018-02-27T01:00:17.580Z,5.93
2018-02-27T01:02:45.046Z,6.07
2018-02-27T01:05:12.525Z,7.35
2018-02-27T01:07:39.951Z,6.60
2018-02-27T01:10:07.379Z,6.72
2018-02-27T01:12:35.076Z,5.72
2018-02-27T01:15:02.510Z,6.45
2018-02-27T01:17:29.940Z,7.30
2018-02-27T01:19:57.400Z,8.70
2018-02-27T01:22:24.830Z,7.35
2018-02-27T01:24:52.280Z,7.87
2018-02-27T01:27:19.933Z,7.22
2018-02-27T01:29:47.401Z,10.25
2018-02-27T01:32:14.900Z,8.88
2018-02-27T01:34:42.340Z,7.97
2018-02-27T01:37:10.544Z,17.73
2018-02-27T01:39:38.044Z,7.50
2018-02-27T01:42:05.483Z,7.70
2018-02-27T01:44:32.917Z,9.45
2018-02-27T01:47:00.412Z,10.25
2018-02-27T01:49:27.852Z,9.55
2018-02-27T01:54:47.053Z,8.50
2018-02-27T01:57:14.515Z,10.98
2018-02-27T01:59:41.948Z,9.05
2018-02-27T02:02:09.471Z,14.80
2018-02-27T02:04:36.904Z,8.73
2018-02-27T02:07:06.483Z,9.48
2018-02-27T02:09:33.920Z,8.95
2018-02-27T02:12:01.357Z,11.20
2018-02-27T02:14:29.017Z,10.13
2018-02-27T02:16:56.462Z,10.27
2018-02-27T02:19:24.701Z,8.38
2018-02-27T02:21:52.136Z,9.77
2018-02-27T02:24:19.574Z,8.40
2018-02-27T02:26:47.173Z,9.80
2018-02-27T02:29:14.616Z,10.52
2018-02-27T02:31:45.857Z,11.20
2018-02-27T02:34:13.302Z,10.55
2018-02-27T02:36:40.741Z,10.05
2018-02-27T02:39:08.200Z,13.38
2018-02-27T02:41:35.692Z,9.70
2018-02-27T02:44:03.120Z,8.82
2018-02-27T02:46:30.557Z,10.55
2018-02-27T02:49:00.121Z,10.77
2018-02-27T02:51:27.556Z,10.68
2018-02-27T02:53:55.132Z,8.63
2018-02-27T02:56:23.338Z,9.35
2018-02-27T02:58:51.544Z,9.85
2018-02-27T03:01:19.032Z,8.23
2018-02-27T03:03:46.476Z,10.45
2018-02-27T03:06:13.922Z,9.32
2018-02-27T03:08:41.716Z,10.88
2018-02-27T03:11:09.161Z,10.00
2018-02-27T03:13:36.630Z,9.23
2018-02-27T03:16:04.069Z,10.98
2018-02-27T03:18:31.557Z,8.80
2018-02-27T03:20:59.001Z,9.13
2018-02-27T03:23:27.197Z,9.60
2018-02-27T03:25:55.076Z,9.10
2018-02-27T03:28:22.517Z,10.00
2018-02-27T03:30:50.039Z,11.00
2018-02-27T03:33:17.504Z,9.30
2018-02-27T03:35:44.954Z,13.77
2018-02-27T03:38:12.433Z,10.23
2018-02-27T03:40:39.877Z,11.02
2018-02-27T03:43:07.319Z,11.27
2018-02-27T03:45:34.838Z,10.95
2018-02-27T03:48:02.277Z,10.20
2018-02-27T03:50:29.813Z,9.38
2018-02-27T03:52:58.010Z,10.88
2018-02-27T03:55:25.472Z,11.52
2018-02-27T03:57:52.945Z,14.00
2018-02-27T04:00:20.380Z,10.68
2018-02-27T04:02:47.840Z,14.48
2018-02-27T04:05:15.377Z,12.80
2018-02-27T04:07:42.814Z,10.25
2018-02-27T04:10:13.340Z,13.70
2018-02-27T04:12:40.789Z,13.38
2018-02-27T04:15:08.233Z,12.30
2018-02-27T04:17:36.464Z,10.63
2018-02-27T04:20:04.233Z,12.40
2018-02-27T04:22:31.697Z,11.30
2018-02-27T04:24:59.155Z,11.32
2018-02-27T04:27:26.744Z,11.52
2018-02-27T04:29:54.956Z,11.85
2018-02-27T04:32:22.434Z,12.18
2018-02-27T04:34:49.993Z,15.90
2018-02-27T04:37:17.437Z,11.65
2018-02-27T04:39:44.893Z,12.10
2018-02-27T04:42:14.268Z,15.27
2018-02-27T04:44:41.697Z,14.23
2018-02-27T04:47:09.163Z,12.43
2018-02-27T04:49:37.374Z,11.48
2018-02-27T04:52:06.185Z,14.77
2018-02-27T04:54:33.637Z,14.87
2018-02-27T04:57:01.108Z,14.68
2018-02-27T04:59:32.380Z,15.93
2018-02-27T05:01:59.864Z,14.50
2018-02-27T05:04:27.300Z,17.98
2018-02-27T05:06:54.744Z,15.23
2018-02-27T05:09:22.490Z,15.20
2018-02-27T05:11:49.934Z,13.57
2018-02-27T05:14:17.381Z,17.40
2018-02-27T05:16:44.853Z,14.32
2018-02-27T05:19:12.317Z,15.98
2018-02-27T05:21:39.768Z,17.45
2018-02-27T05:24:07.209Z,17.67
2018-02-27T05:26:34.814Z,16.08
2018-02-27T05:29:02.256Z,16.45
2018-02-27T05:31:29.718Z,16.15
2018-02-27T05:33:57.300Z,18.37
2018-02-27T05:36:25.514Z,15.25
2018-02-27T05:38:52.956Z,17.87
2018-02-27T05:41:20.673Z,19.33
2018-02-27T05:43:48.143Z,17.73
2018-02-27T05:46:16.537Z,16.02
2018-02-27T05:48:44.741Z,19.02
2018-02-27T05:51:12.235Z,16.50
2018-02-27T05:53:39.677Z,18.80
2018-02-27T05:56:07.127Z,19.17
2018-02-27T05:58:34.808Z,19.20
2018-02-27T06:01:02.413Z,20.37
2018-02-27T06:03:35.564Z,17.10
2018-02-27T06:06:15.803Z,17.67
2018-02-27T06:08:43.268Z,19.83
2018-02-27T06:11:10.713Z,17.92
2018-02-27T06:13:38.149Z,18.75
2018-02-27T06:16:09.766Z,21.33
2018-02-27T06:18:37.258Z,19.50
2018-02-27T06:21:04.710Z,18.55
2018-02-27T06:23:32.918Z,16.83
2018-02-27T06:26:00.386Z,18.33
2018-02-27T06:28:27.873Z,16.77
2018-02-27T06:30:55.321Z,21.95
2018-02-27T06:33:22.781Z,19.50
2018-02-27T06:35:50.363Z,19.73
2018-02-27T06:38:18.694Z,21.05
2018-02-27T06:40:46.159Z,18.35
2018-02-27T06:43:13.590Z,18.77
2018-02-27T06:45:41.056Z,21.98
2018-02-27T06:48:08.521Z,22.05
2018-02-27T06:50:35.968Z,19.95
2018-02-27T06:53:03.632Z,22.92
2018-02-27T06:55:31.089Z,23.35
2018-02-27T06:57:58.533Z,17.33
2018-02-27T07:00:26.077Z,37.17
2018-02-27T07:02:53.741Z,19.65
2018-02-27T07:05:21.957Z,19.33
2018-02-27T07:07:51.261Z,19.30
2018-02-27T07:10:18.720Z,17.85
2018-02-27T07:12:46.142Z,16.20
2018-02-27T07:15:13.625Z,23.12
2018-02-27T07:17:43.559Z,18.30
2018-02-27T07:20:11.047Z,17.02
2018-02-27T07:22:38.510Z,15.40
2018-02-27T07:25:08.017Z,18.33
2018-02-27T07:27:36.333Z,20.70
2018-02-27T07:30:03.920Z,16.00
2018-02-27T07:32:31.389Z,16.48
2018-02-27T07:34:58.869Z,19.40
2018-02-27T07:37:27.117Z,15.32
2018-02-27T07:39:54.581Z,21.70
2018-02-27T07:42:22.030Z,18.35
2018-02-27T07:44:49.532Z,15.43
2018-02-27T07:47:17.011Z,17.95
2018-02-27T07:49:45.223Z,18.37
2018-02-27T07:52:12.676Z,20.45
2018-02-27T07:54:40.141Z,19.70
2018-02-27T07:57:07.588Z,15.82
2018-02-27T07:59:36.612Z,15.02
2018-02-27T08:02:04.064Z,16.10
2018-02-27T08:04:31.504Z,15.23
2018-02-27T08:06:58.978Z,16.23
2018-02-27T08:09:26.420Z,15.65
2018-02-27T08:11:54.451Z,14.02
2018-02-27T08:14:21.912Z,15.77
2018-02-27T08:16:50.813Z,12.90
2018-02-27T08:19:18.284Z,15.43
2018-02-27T08:21:45.752Z,15.93
2018-02-27T08:24:13.201Z,14.52
2018-02-27T08:26:41.034Z,12.02
2018-02-27T08:29:08.484Z,13.90
2018-02-27T08:31:36.071Z,15.80
2018-02-27T08:34:03.516Z,12.73
2018-02-27T08:36:31.014Z,11.27
2018-02-27T08:38:58.481Z,12.30
2018-02-27T08:41:26.064Z,9.43
2018-02-27T08:43:53.512Z,12.68
2018-02-27T08:46:21.789Z,11.10
2018-02-27T08:48:50.573Z,11.10
2018-02-27T08:51:18.061Z,10.93
2018-02-27T08:53:45.507Z,9.27
2018-02-27T08:56:13.056Z,11.30
2018-02-27T08:58:40.445Z,9.00
2018-02-27T09:01:07.890Z,10.02
2018-02-27T09:03:35.438Z,8.75
2018-02-27T09:06:02.906Z,9.90
2018-02-27T09:08:30.345Z,9.38
2018-02-27T09:10:58.567Z,8.60
2018-02-27T09:13:26.030Z,9.07
2018-02-27T09:15:53.489Z,8.50
2018-02-27T09:18:20.935Z,13.38
2018-02-27T09:20:48.443Z,10.70
2018-02-27T09:23:16.645Z,9.05
2018-02-27T09:25:44.159Z,9.20
2018-02-27T09:28:14.196Z,8.65
2018-02-27T09:30:42.447Z,8.45
2018-02-27T09:33:09.909Z,7.85
2018-02-27T09:35:37.344Z,7.05
2018-02-27T09:38:04.937Z,7.70
2018-02-27T09:40:32.419Z,8.60
2018-02-27T09:42:59.862Z,10.57
2018-02-27T09:45:28.175Z,7.68
2018-02-27T09:47:55.651Z,9.25
2018-02-27T09:50:23.081Z,8.07
2018-02-27T09:52:50.571Z,8.10
2018-02-27T09:55:18.006Z,7.87
2018-02-27T09:57:45.662Z,10.88
2018-02-27T10:00:13.121Z,6.87
2018-02-27T10:02:40.545Z,8.93
2018-02-27T10:05:08.799Z,5.68
2018-02-27T10:07:36.237Z,5.87
2018-02-27T10:10:03.680Z,5.97
2018-02-27T10:12:32.448Z,7.35
2018-02-27T10:14:59.902Z,8.98
2018-02-27T10:17:27.339Z,5.15
2018-02-27T10:19:55.571Z,4.20
2018-02-27T10:22:23.038Z,5.22
2018-02-27T10:24:50.483Z,5.53
2018-02-27T10:27:17.955Z,4.72
2018-02-27T10:29:45.976Z,6.35
2018-02-27T10:32:14.791Z,5.70
2018-02-27T10:34:42.234Z,5.00
2018-02-27T10:37:09.691Z,7.40
2018-02-27T10:39:37.149Z,6.75
2018-02-27T10:42:04.614Z,4.47
2018-02-27T10:44:32.049Z,6.82
2018-02-27T10:46:59.596Z,6.20
2018-02-27T10:49:27.792Z,4.72
2018-02-27T10:51:55.262Z,6.12
2018-02-27T10:54:22.722Z,5.10
2018-02-27T10:56:50.384Z,3.95
2018-02-27T10:59:17.825Z,5.75
2018-02-27T11:01:45.272Z,3.95
2018-02-27T11:04:12.753Z,5.18
2018-02-27T11:06:40.222Z,4.70
2018-02-27T11:09:07.685Z,5.53
2018-02-27T11:11:36.053Z,4.18
2018-02-27T11:14:03.555Z,12.37
2018-02-27T11:16:31.014Z,5.37
2018-02-27T11:18:58.457Z,3.55
2018-02-27T11:21:25.944Z,5.05
2018-02-27T11:23:54.237Z,5.90
2018-02-27T11:26:21.689Z,4.97
2018-02-27T11:28:52.922Z,5.47
2018-02-27T11:31:21.157Z,4.93
2018-02-27T11:33:48.629Z,5.15
2018-02-27T11:36:16.088Z,5.30
2018-02-27T11:38:43.548Z,5.57
2018-02-27T11:41:11.005Z,4.82
2018-02-27T11:43:38.462Z,4.70
2018-02-27T11:46:06.009Z,6.07
2018-02-27T11:48:33.480Z,4.20
2018-02-27T11:51:00.953Z,3.62
2018-02-27T11:53:29.156Z,4.20
2018-02-27T11:55:56.634Z,4.90
2018-02-27T11:58:24.053Z,5.70
2018-02-27T12:00:52.508Z,5.93
2018-02-27T12:03:20.034Z,3.92
2018-02-27T12:05:47.512Z,3.30
2018-02-27T12:08:15.017Z,3.55
2018-02-27T12:10:42.415Z,4.20
2018-02-27T12:13:10.018Z,5.18
2018-02-27T12:15:38.230Z,3.55
2018-02-27T12:18:05.754Z,3.50
2018-02-27T12:20:33.201Z,4.20
2018-02-27T12:23:01.948Z,4.35
2018-02-27T12:25:29.384Z,3.83
2018-02-27T12:27:56.832Z,3.72
2018-02-27T12:30:24.503Z,3.35
2018-02-27T12:32:51.998Z,4.82
2018-02-27T12:35:20.210Z,3.75
2018-02-27T12:37:47.657Z,4.68
2018-02-27T12:40:15.175Z,2.92
2018-02-27T12:42:42.624Z,3.53
2018-02-27T12:45:10.060Z,3.05
2018-02-27T12:47:37.665Z,3.78
2018-02-27T12:50:05.114Z,3.17
2018-02-27T12:52:32.589Z,3.53
2018-02-27T12:55:00.050Z,5.25
2018-02-27T12:57:27.533Z,3.15
2018-02-27T12:59:55.749Z,2.50
2018-02-27T13:02:23.228Z,3.47
2018-02-27T13:04:54.513Z,2.95
2018-02-27T13:07:23.038Z,4.43
2018-02-27T13:09:50.492Z,3.00
2018-02-27T13:12:17.948Z,3.03
2018-02-27T13:14:45.418Z,4.05
2018-02-27T13:17:12.981Z,6.85
2018-02-27T13:19:40.447Z,3.55
2018-02-27T13:22:07.912Z,4.85
2018-02-27T13:24:35.556Z,3.08
2018-02-27T13:27:03.032Z,4.95
2018-02-27T13:29:30.481Z,3.85
2018-02-27T13:31:58.000Z,3.80
2018-02-27T13:34:25.502Z,8.20
2018-02-27T13:36:52.947Z,18.25
2018-02-27T13:39:20.421Z,4.50
2018-02-27T13:41:47.869Z,5.70
2018-02-27T13:44:15.426Z,4.15
2018-02-27T13:46:42.888Z,3.28
2018-02-27T13:49:10.376Z,4.80
2018-02-27T13:51:38.047Z,3.65
2018-02-27T13:54:07.530Z,3.30
2018-02-27T13:56:34.988Z,2.92
2018-02-27T13:59:02.438Z,5.62
2018-02-27T14:01:29.873Z,5.47
2018-02-27T14:03:57.341Z,4.47
2018-02-27T14:06:24.885Z,6.60
2018-02-27T14:08:57.364Z,6.70
2018-02-27T14:11:24.812Z,3.95
2018-02-27T14:13:52.293Z,4.37
2018-02-27T14:16:19.728Z,2.62
2018-02-27T14:18:47.200Z,4.45
2018-02-27T14:21:14.674Z,3.35
2018-02-27T14:23:44.076Z,5.30
2018-02-27T14:26:11.510Z,4.30
2018-02-27T14:28:38.960Z,3.05
2018-02-27T14:31:06.455Z,3.05
2018-02-27T14:33:33.904Z,4.37
2018-02-27T14:36:01.375Z,3.47
2018-02-27T14:38:28.887Z,3.10
2018-02-27T14:40:56.353Z,3.60
2018-02-27T14:43:23.806Z,3.50
2018-02-27T14:45:51.340Z,4.37
2018-02-27T14:48:18.790Z,5.53
2018-02-27T14:50:47.059Z,6.82
2018-02-27T14:53:14.516Z,4.20
2018-02-27T14:55:42.866Z,4.97
2018-02-27T14:58:10.344Z,4.82
2018-02-27T15:00:37.781Z,6.28
2018-02-27T15:03:05.249Z,4.75
2018-02-27T15:05:32.684Z,4.78
2018-02-27T15:08:00.149Z,3.85
2018-02-27T15:10:27.589Z,3.97
2018-02-27T15:12:55.254Z,5.05
2018-02-27T15:15:22.701Z,4.97
2018-02-27T15:17:50.185Z,4.10
2018-02-27T15:20:17.621Z,3.97
2018-02-27T15:22:45.098Z,10.52
2018-02-27T15:25:12.578Z,4.65
2018-02-27T15:27:40.071Z,4.25
2018-02-27T15:30:08.263Z,4.00
2018-02-27T15:32:35.736Z,4.53
2018-02-27T15:35:03.730Z,4.03
2018-02-27T15:37:31.185Z,6.20
2018-02-27T15:39:58.647Z,3.65
2018-02-27T15:42:27.326Z,3.80
2018-02-27T15:44:54.752Z,5.72
2018-02-27T15:47:22.296Z,3.60
2018-02-27T15:49:49.775Z,4.12
2018-02-27T15:52:17.200Z,4.75
2018-02-27T15:54:44.668Z,4.87
2018-02-27T15:57:12.179Z,4.45
2018-02-27T15:59:39.629Z,5.70
2018-02-27T16:02:07.437Z,4.43
2018-02-27T16:04:35.640Z,3.20
2018-02-27T16:07:03.085Z,4.60
2018-02-27T16:09:30.546Z,5.47
2018-02-27T16:11:58.780Z,8.82
2018-02-27T16:14:26.220Z,7.40
2018-02-27T16:16:53.817Z,3.53
2018-02-27T16:19:22.025Z,4.78
2018-02-27T16:21:49.511Z,5.22
2018-02-27T16:24:16.959Z,3.50
2018-02-27T16:26:44.448Z,3.47
2018-02-27T16:29:12.689Z,3.67
2018-02-27T16:31:40.157Z,3.72
2018-02-27T16:34:07.744Z,4.70
2018-02-27T16:36:35.208Z,4.95
2018-02-27T16:39:03.432Z,4.60
2018-02-27T16:41:30.892Z,6.85
2018-02-27T16:43:58.341Z,6.05
2018-02-27T16:46:25.825Z,4.60
2018-02-27T16:48:53.257Z,6.05
2018-02-27T16:51:25.036Z,5.78
2018-02-27T16:53:52.498Z,4.53
2018-02-27T16:56:20.002Z,3.72
2018-02-27T16:58:48.217Z,3.70
2018-02-27T17:01:15.686Z,5.20
2018-02-27T17:03:43.436Z,4.85
2018-02-27T17:06:10.985Z,6.15
2018-02-27T17:08:38.446Z,6.62
2018-02-27T17:11:06.665Z,5.47
2018-02-27T17:13:34.129Z,5.93
2018-02-27T17:16:01.574Z,5.82
2018-02-27T17:18:29.080Z,4.90
2018-02-27T17:20:56.518Z,5.25
2018-02-27T17:23:23.953Z,8.55
2018-02-27T17:25:51.558Z,6.40
2018-02-27T17:28:18.983Z,4.70
2018-02-27T17:30:47.229Z,5.50
2018-02-27T17:33:14.672Z,5.32
2018-02-27T17:35:42.159Z,5.35
2018-02-27T17:38:09.595Z,4.60
2018-02-27T17:40:37.031Z,7.25
2018-02-27T17:43:07.169Z,6.05
2018-02-27T17:45:34.625Z,6.35
2018-02-27T17:48:02.088Z,5.47
2018-02-27T17:50:29.545Z,5.22
2018-02-27T17:52:57.009Z,5.78
2018-02-27T17:55:24.469Z,5.78
2018-02-27T17:57:51.915Z,5.30
2018-02-27T18:00:23.673Z,8.35
2018-02-27T18:02:51.117Z,7.10
2018-02-27T18:05:18.589Z,5.80
2018-02-27T18:07:46.049Z,4.72
2018-02-27T18:10:13.513Z,5.12
2018-02-27T18:12:40.957Z,6.30
2018-02-27T18:15:08.493Z,6.55
2018-02-27T18:17:35.937Z,5.20
2018-02-27T18:20:03.425Z,7.72
2018-02-27T18:22:30.859Z,4.82
2018-02-27T18:24:58.292Z,5.05
2018-02-27T18:27:31.653Z,6.28
2018-02-27T18:29:59.164Z,4.53
2018-02-27T18:32:26.606Z,4.85
2018-02-27T18:34:55.112Z,7.60
2018-02-27T18:37:22.568Z,4.07
2018-02-27T18:39:50.763Z,4.50
2018-02-27T18:42:18.436Z,4.82
2018-02-27T18:44:45.897Z,5.65
2018-02-27T18:47:13.358Z,5.65
2018-02-27T18:49:40.792Z,5.43
2018-02-27T18:52:08.257Z,4.97
2018-02-27T18:54:35.688Z,8.05
2018-02-27T18:57:03.156Z,5.12
2018-02-27T18:59:30.597Z,4.47
2018-02-27T19:01:58.216Z,6.97
2018-02-27T19:04:25.665Z,6.45
2018-02-27T19:06:53.098Z,8.30
2018-02-27T19:09:20.595Z,5.35
2018-02-27T19:11:48.048Z,6.05
2018-02-27T19:14:15.485Z,7.15
2018-02-27T19:16:43.032Z,6.32
2018-02-27T19:19:10.501Z,5.30
2018-02-27T19:21:37.941Z,8.30
2018-02-27T19:24:05.596Z,5.87
2018-02-27T19:26:33.036Z,5.97
2018-02-27T19:29:00.473Z,7.20
2018-02-27T19:31:28.777Z,6.05
2018-02-27T19:33:56.245Z,5.95
2018-02-27T19:36:23.852Z,5.72
2018-02-27T19:38:52.072Z,5.35
2018-02-27T19:41:19.630Z,6.75
2018-02-27T19:43:47.126Z,8.90
2018-02-27T19:46:14.572Z,6.50
2018-02-27T19:48:42.018Z,6.12
2018-02-27T19:51:09.625Z,8.30
2018-02-27T19:53:38.304Z,6.82
2018-02-27T19:56:05.802Z,5.82
2018-02-27T19:58:33.272Z,6.90
2018-02-27T20:01:01.461Z,8.55
2018-02-27T20:03:29.099Z,7.07
2018-02-27T20:05:56.721Z,6.32
2018-02-27T20:08:24.166Z,8.75
2018-02-27T20:10:51.653Z,18.62
2018-02-27T20:13:19.884Z,8.77
2018-02-27T20:15:47.470Z,8.55
2018-02-27T20:18:16.116Z,10.07
2018-02-27T20:20:44.027Z,9.20
2018-02-27T20:23:17.293Z,7.22
2018-02-27T20:25:44.861Z,7.68
2018-02-27T20:28:17.994Z,11.00
2018-02-27T20:30:46.215Z,7.47
2018-02-27T20:33:13.800Z,8.90
2018-02-27T20:35:41.267Z,7.28
2018-02-27T20:38:08.737Z,7.35
2018-02-27T20:40:37.000Z,11.75
2018-02-27T20:43:04.440Z,12.43
2018-02-27T20:45:31.902Z,10.88
2018-02-27T20:47:59.485Z,9.30
2018-02-27T20:50:27.744Z,10.60
2018-02-27T20:52:55.124Z,14.60
2018-02-27T20:55:23.403Z,13.68
2018-02-27T20:57:51.636Z,10.23
2018-02-27T21:00:19.135Z,8.82
2018-02-27T21:02:47.349Z,10.40
2018-02-27T21:05:14.788Z,9.57
2018-02-27T21:07:42.432Z,12.27
2018-02-27T21:10:09.940Z,8.43
2018-02-27T21:12:37.381Z,10.73
2018-02-27T21:15:04.835Z,8.50
2018-02-27T21:17:32.348Z,9.98
2018-02-27T21:20:00.645Z,12.98
2018-02-27T21:22:28.863Z,8.85
2018-02-27T21:24:58.426Z,8.70
2018-02-27T21:27:26.644Z,9.60
2018-02-27T21:29:54.128Z,8.48
2018-02-27T21:32:21.567Z,11.75
2018-02-27T21:34:49.008Z,11.88
2018-02-27T21:37:16.546Z,8.75
2018-02-27T21:39:44.996Z,12.73
2018-02-27T21:42:12.488Z,10.68
2018-02-27T21:44:39.932Z,14.32
2018-02-27T21:47:08.149Z,17.85
2018-02-27T21:49:35.626Z,15.00
2018-02-27T21:52:03.579Z,12.20
2018-02-27T21:54:31.151Z,11.70
2018-02-27T21:56:58.667Z,11.63
2018-02-27T21:59:26.172Z,10.95
2018-02-27T22:01:53.622Z,10.02
2018-02-27T22:04:21.125Z,10.85
2018-02-27T22:06:49.345Z,12.13
2018-02-27T22:09:17.007Z,12.50
2018-02-27T22:11:44.547Z,12.82
2018-02-27T22:14:12.009Z,14.48
2018-02-27T22:16:44.437Z,13.40
2018-02-27T22:19:11.905Z,12.98
2018-02-27T22:21:40.133Z,14.93
2018-02-27T22:24:09.019Z,11.00
2018-02-27T22:26:36.463Z,9.43
2018-02-27T22:29:03.911Z,11.43
2018-02-27T22:31:31.377Z,9.40
2018-02-27T22:33:58.825Z,12.02
2018-02-27T22:36:26.293Z,10.45
2018-02-27T22:38:53.743Z,12.43
2018-02-27T22:41:21.333Z,11.07
2018-02-27T22:43:48.918Z,11.38
2018-02-27T22:46:16.355Z,10.73
2018-02-27T22:48:43.801Z,10.90
2018-02-27T22:51:11.316Z,15.55
2018-02-27T22:53:41.980Z,9.70
2018-02-27T22:56:09.436Z,11.30
2018-02-27T22:58:36.868Z,22.00
2018-02-27T23:01:05.138Z,15.63
2018-02-27T23:03:34.449Z,11.73
2018-02-27T23:06:01.894Z,12.63
2018-02-27T23:08:30.225Z,10.82
2018-02-27T23:10:57.670Z,17.02
2018-02-27T23:13:25.133Z,12.45
2018-02-27T23:15:53.749Z,18.42
2018-02-27T23:18:21.189Z,11.80
2018-02-27T23:20:54.757Z,11.35
2018-02-27T23:23:23.009Z,9.07
2018-02-27T23:25:51.866Z,9.85
2018-02-27T23:28:24.747Z,8.40
2018-02-27T23:30:52.242Z,12.10
2018-02-27T23:33:20.657Z,9.73
2018-02-27T23:35:48.088Z,7.90
2018-02-27T23:38:15.568Z,10.00
2018-02-27T23:40:43.001Z,8.02
2018-02-27T23:43:10.471Z,7.87
2018-02-27T23:45:37.976Z,8.90
2018-02-27T23:48:05.416Z,8.40
2018-02-27T23:50:32.982Z,8.48
2018-02-27T23:53:00.415Z,9.52
2018-02-27T23:55:27.851Z,9.48
2018-02-27T23:57:55.326Z,8.80
